sensor_id;sensor_type;location;lat;lon;timestamp;P1;durP1;ratioP1;P2;durP2;ratioP2
76795;SDS011;65745;50.278;18.192;2023-07-22T00:02:00;11.50;;;9.30;;
76795;SDS011;65745;50.278;18.192;2023-07-22T00:04:32;13.40;;;8.90;;
76795;SDS011;65745;50.278;18.192;2023-07-22T00:07:04;10.20;;;8.70;;
76795;SDS011;65745;50.278;18.192;2023-07-22T00:09:36;12.50;;;8.30;;
76795;SDS011;65745;50.278;18.192;2023-07-22T00:12:10;10.80;;;8.10;;
76795;SDS011;65745;50.278;18.192;2023-07-22T00:14:42;11.60;;;8.20;;
76795;SDS011;65745;50.278;18.192;2023-07-22T00:17:14;13.00;;;8.40;;
76795;SDS011;65745;50.278;18.192;2023-07-22T00:19:47;11.20;;;7.50;;
76795;SDS011;65745;50.278;18.192;2023-07-22T00:22:19;9.60;;;7.40;;
76795;SDS011;65745;50.278;18.192;2023-07-22T00:24:51;12.40;;;7.40;;
76795;SDS011;65745;50.278;18.192;2023-07-22T00:27:23;18.10;;;8.20;;
76795;SDS011;65745;50.278;18.192;2023-07-22T00:29:55;12.10;;;7.10;;
76795;SDS011;65745;50.278;18.192;2023-07-22T00:32:27;9.90;;;7.10;;
76795;SDS011;65745;50.278;18.192;2023-07-22T00:34:59;12.90;;;7.60;;
76795;SDS011;65745;50.278;18.192;2023-07-22T00:37:31;13.60;;;6.70;;
76795;SDS011;65745;50.278;18.192;2023-07-22T00:40:05;10.10;;;6.50;;
76795;SDS011;65745;50.278;18.192;2023-07-22T00:42:41;11.20;;;7.20;;
76795;SDS011;65745;50.278;18.192;2023-07-22T00:45:13;10.00;;;6.50;;
76795;SDS011;65745;50.278;18.192;2023-07-22T00:47:45;15.90;;;7.50;;
76795;SDS011;65745;50.278;18.192;2023-07-22T00:50:18;12.00;;;6.90;;
76795;SDS011;65745;50.278;18.192;2023-07-22T00:52:52;14.70;;;7.50;;
76795;SDS011;65745;50.278;18.192;2023-07-22T00:55:24;13.90;;;6.40;;
76795;SDS011;65745;50.278;18.192;2023-07-22T00:57:58;12.70;;;6.70;;
76795;SDS011;65745;50.278;18.192;2023-07-22T01:00:30;12.60;;;6.90;;
76795;SDS011;65745;50.278;18.192;2023-07-22T01:03:02;16.50;;;6.80;;
76795;SDS011;65745;50.278;18.192;2023-07-22T01:05:37;12.10;;;6.40;;
76795;SDS011;65745;50.278;18.192;2023-07-22T01:08:10;15.80;;;7.00;;
76795;SDS011;65745;50.278;18.192;2023-07-22T01:10:42;15.90;;;6.90;;
76795;SDS011;65745;50.278;18.192;2023-07-22T01:13:14;17.10;;;7.80;;
76795;SDS011;65745;50.278;18.192;2023-07-22T01:15:46;12.80;;;6.90;;
76795;SDS011;65745;50.278;18.192;2023-07-22T01:18:19;10.40;;;7.90;;
76795;SDS011;65745;50.278;18.192;2023-07-22T01:20:51;21.50;;;9.80;;
76795;SDS011;65745;50.278;18.192;2023-07-22T01:23:23;11.60;;;8.30;;
76795;SDS011;65745;50.278;18.192;2023-07-22T01:25:56;18.70;;;9.90;;
76795;SDS011;65745;50.278;18.192;2023-07-22T01:28:29;14.80;;;10.40;;
76795;SDS011;65745;50.278;18.192;2023-07-22T01:31:01;15.50;;;9.90;;
76795;SDS011;65745;50.278;18.192;2023-07-22T01:33:34;16.30;;;9.40;;
76795;SDS011;65745;50.278;18.192;2023-07-22T01:36:07;15.40;;;10.50;;
76795;SDS011;65745;50.278;18.192;2023-07-22T01:38:39;18.10;;;11.10;;
76795;SDS011;65745;50.278;18.192;2023-07-22T01:41:11;14.40;;;9.40;;
76795;SDS011;65745;50.278;18.192;2023-07-22T01:43:43;12.90;;;10.00;;
76795;SDS011;65745;50.278;18.192;2023-07-22T01:46:15;14.30;;;9.10;;
76795;SDS011;65745;50.278;18.192;2023-07-22T01:48:47;13.60;;;10.10;;
76795;SDS011;65745;50.278;18.192;2023-07-22T01:51:19;16.30;;;11.10;;
76795;SDS011;65745;50.278;18.192;2023-07-22T01:53:51;12.40;;;9.70;;
76795;SDS011;65745;50.278;18.192;2023-07-22T01:56:26;16.50;;;9.60;;
76795;SDS011;65745;50.278;18.192;2023-07-22T01:58:58;12.10;;;9.10;;
76795;SDS011;65745;50.278;18.192;2023-07-22T02:01:30;12.70;;;8.70;;
76795;SDS011;65745;50.278;18.192;2023-07-22T02:04:02;11.10;;;9.20;;
76795;SDS011;65745;50.278;18.192;2023-07-22T02:06:36;10.40;;;8.40;;
76795;SDS011;65745;50.278;18.192;2023-07-22T02:09:08;15.60;;;9.70;;
76795;SDS011;65745;50.278;18.192;2023-07-22T02:11:42;10.70;;;8.90;;
76795;SDS011;65745;50.278;18.192;2023-07-22T02:14:15;11.90;;;10.40;;
76795;SDS011;65745;50.278;18.192;2023-07-22T02:16:47;8.60;;;7.70;;
76795;SDS011;65745;50.278;18.192;2023-07-22T02:19:19;11.60;;;7.60;;
76795;SDS011;65745;50.278;18.192;2023-07-22T02:21:51;12.80;;;7.30;;
76795;SDS011;65745;50.278;18.192;2023-07-22T02:24:23;12.50;;;7.00;;
76795;SDS011;65745;50.278;18.192;2023-07-22T02:26:55;11.60;;;6.70;;
76795;SDS011;65745;50.278;18.192;2023-07-22T02:29:27;11.10;;;8.10;;
76795;SDS011;65745;50.278;18.192;2023-07-22T02:32:00;7.80;;;5.80;;
76795;SDS011;65745;50.278;18.192;2023-07-22T02:34:33;9.40;;;6.20;;
76795;SDS011;65745;50.278;18.192;2023-07-22T02:37:06;12.80;;;6.70;;
76795;SDS011;65745;50.278;18.192;2023-07-22T02:39:38;11.70;;;7.10;;
76795;SDS011;65745;50.278;18.192;2023-07-22T02:42:10;6.90;;;5.60;;
76795;SDS011;65745;50.278;18.192;2023-07-22T02:44:42;9.50;;;6.40;;
76795;SDS011;65745;50.278;18.192;2023-07-22T02:47:14;6.90;;;5.20;;
76795;SDS011;65745;50.278;18.192;2023-07-22T02:49:47;10.90;;;5.40;;
76795;SDS011;65745;50.278;18.192;2023-07-22T02:52:19;8.80;;;6.60;;
76795;SDS011;65745;50.278;18.192;2023-07-22T02:55:05;10.80;;;6.80;;
76795;SDS011;65745;50.278;18.192;2023-07-22T02:57:40;6.80;;;5.60;;
76795;SDS011;65745;50.278;18.192;2023-07-22T03:00:13;6.80;;;5.60;;
76795;SDS011;65745;50.278;18.192;2023-07-22T03:02:53;6.20;;;4.90;;
76795;SDS011;65745;50.278;18.192;2023-07-22T03:05:30;5.90;;;5.30;;
76795;SDS011;65745;50.278;18.192;2023-07-22T03:08:03;9.30;;;6.40;;
76795;SDS011;65745;50.278;18.192;2023-07-22T03:10:36;8.20;;;5.00;;
76795;SDS011;65745;50.278;18.192;2023-07-22T03:13:08;6.60;;;5.70;;
76795;SDS011;65745;50.278;18.192;2023-07-22T03:15:40;7.40;;;5.30;;
76795;SDS011;65745;50.278;18.192;2023-07-22T03:18:12;10.50;;;5.70;;
76795;SDS011;65745;50.278;18.192;2023-07-22T03:20:44;7.40;;;5.90;;
76795;SDS011;65745;50.278;18.192;2023-07-22T03:23:16;7.30;;;6.50;;
76795;SDS011;65745;50.278;18.192;2023-07-22T03:25:48;8.10;;;6.30;;
76795;SDS011;65745;50.278;18.192;2023-07-22T03:28:20;6.90;;;6.20;;
76795;SDS011;65745;50.278;18.192;2023-07-22T03:30:54;9.10;;;6.10;;
76795;SDS011;65745;50.278;18.192;2023-07-22T03:33:27;9.40;;;6.20;;
76795;SDS011;65745;50.278;18.192;2023-07-22T03:35:59;11.80;;;5.30;;
76795;SDS011;65745;50.278;18.192;2023-07-22T03:38:31;7.40;;;5.10;;
76795;SDS011;65745;50.278;18.192;2023-07-22T03:41:03;8.70;;;5.20;;
76795;SDS011;65745;50.278;18.192;2023-07-22T03:43:36;8.60;;;5.30;;
76795;SDS011;65745;50.278;18.192;2023-07-22T03:46:08;7.40;;;4.60;;
76795;SDS011;65745;50.278;18.192;2023-07-22T03:48:40;8.50;;;5.70;;
76795;SDS011;65745;50.278;18.192;2023-07-22T03:51:12;6.30;;;4.90;;
76795;SDS011;65745;50.278;18.192;2023-07-22T03:53:49;6.50;;;5.60;;
76795;SDS011;65745;50.278;18.192;2023-07-22T03:56:21;6.60;;;4.70;;
76795;SDS011;65745;50.278;18.192;2023-07-22T03:58:54;7.10;;;4.80;;
76795;SDS011;65745;50.278;18.192;2023-07-22T04:01:26;6.20;;;4.90;;
76795;SDS011;65745;50.278;18.192;2023-07-22T04:03:58;7.40;;;5.30;;
76795;SDS011;65745;50.278;18.192;2023-07-22T04:06:30;10.40;;;4.90;;
76795;SDS011;65745;50.278;18.192;2023-07-22T04:09:02;9.10;;;5.20;;
76795;SDS011;65745;50.278;18.192;2023-07-22T04:11:35;9.50;;;4.60;;
76795;SDS011;65745;50.278;18.192;2023-07-22T04:14:07;6.30;;;5.20;;
76795;SDS011;65745;50.278;18.192;2023-07-22T04:16:41;10.80;;;5.40;;
76795;SDS011;65745;50.278;18.192;2023-07-22T04:19:13;8.50;;;5.00;;
76795;SDS011;65745;50.278;18.192;2023-07-22T04:21:47;6.90;;;5.20;;
76795;SDS011;65745;50.278;18.192;2023-07-22T04:24:18;6.00;;;5.40;;
76795;SDS011;65745;50.278;18.192;2023-07-22T04:26:52;6.30;;;5.60;;
76795;SDS011;65745;50.278;18.192;2023-07-22T04:31:58;10.30;;;6.10;;
76795;SDS011;65745;50.278;18.192;2023-07-22T04:34:32;8.60;;;5.60;;
76795;SDS011;65745;50.278;18.192;2023-07-22T04:37:04;7.30;;;5.80;;
76795;SDS011;65745;50.278;18.192;2023-07-22T04:39:37;8.60;;;6.40;;
76795;SDS011;65745;50.278;18.192;2023-07-22T04:42:09;8.10;;;6.10;;
76795;SDS011;65745;50.278;18.192;2023-07-22T04:44:41;8.40;;;5.70;;
76795;SDS011;65745;50.278;18.192;2023-07-22T04:47:14;7.00;;;5.60;;
76795;SDS011;65745;50.278;18.192;2023-07-22T04:49:46;8.40;;;6.50;;
76795;SDS011;65745;50.278;18.192;2023-07-22T04:52:18;7.50;;;5.60;;
76795;SDS011;65745;50.278;18.192;2023-07-22T04:54:50;8.40;;;4.60;;
76795;SDS011;65745;50.278;18.192;2023-07-22T04:57:22;5.70;;;5.10;;
76795;SDS011;65745;50.278;18.192;2023-07-22T04:59:54;7.10;;;5.70;;
76795;SDS011;65745;50.278;18.192;2023-07-22T05:02:26;7.50;;;5.20;;
76795;SDS011;65745;50.278;18.192;2023-07-22T05:04:59;6.40;;;5.30;;
76795;SDS011;65745;50.278;18.192;2023-07-22T05:07:31;7.00;;;5.30;;
76795;SDS011;65745;50.278;18.192;2023-07-22T05:10:04;5.90;;;4.60;;
76795;SDS011;65745;50.278;18.192;2023-07-22T05:12:42;6.10;;;5.20;;
76795;SDS011;65745;50.278;18.192;2023-07-22T05:15:14;6.30;;;4.90;;
76795;SDS011;65745;50.278;18.192;2023-07-22T05:17:46;6.00;;;4.70;;
76795;SDS011;65745;50.278;18.192;2023-07-22T05:20:18;6.00;;;4.40;;
76795;SDS011;65745;50.278;18.192;2023-07-22T05:22:51;6.60;;;5.00;;
76795;SDS011;65745;50.278;18.192;2023-07-22T05:25:23;5.00;;;4.30;;
76795;SDS011;65745;50.278;18.192;2023-07-22T05:27:55;4.50;;;4.10;;
76795;SDS011;65745;50.278;18.192;2023-07-22T05:30:27;5.90;;;4.90;;
76795;SDS011;65745;50.278;18.192;2023-07-22T05:33:04;6.40;;;4.20;;
76795;SDS011;65745;50.278;18.192;2023-07-22T05:35:36;7.50;;;5.30;;
76795;SDS011;65745;50.278;18.192;2023-07-22T05:38:08;4.80;;;3.90;;
76795;SDS011;65745;50.278;18.192;2023-07-22T05:40:40;5.50;;;4.30;;
76795;SDS011;65745;50.278;18.192;2023-07-22T05:43:13;4.60;;;4.20;;
76795;SDS011;65745;50.278;18.192;2023-07-22T05:45:47;5.20;;;4.40;;
76795;SDS011;65745;50.278;18.192;2023-07-22T05:48:19;7.90;;;4.50;;
76795;SDS011;65745;50.278;18.192;2023-07-22T05:50:51;5.60;;;4.60;;
76795;SDS011;65745;50.278;18.192;2023-07-22T05:53:23;5.40;;;4.20;;
76795;SDS011;65745;50.278;18.192;2023-07-22T05:55:55;4.50;;;4.00;;
76795;SDS011;65745;50.278;18.192;2023-07-22T05:58:28;4.90;;;4.00;;
76795;SDS011;65745;50.278;18.192;2023-07-22T06:01:00;5.10;;;3.50;;
76795;SDS011;65745;50.278;18.192;2023-07-22T06:03:32;4.10;;;3.60;;
76795;SDS011;65745;50.278;18.192;2023-07-22T06:06:04;4.10;;;3.70;;
76795;SDS011;65745;50.278;18.192;2023-07-22T06:08:36;4.60;;;4.20;;
76795;SDS011;65745;50.278;18.192;2023-07-22T06:11:08;5.30;;;4.00;;
76795;SDS011;65745;50.278;18.192;2023-07-22T06:13:40;5.70;;;3.50;;
76795;SDS011;65745;50.278;18.192;2023-07-22T06:16:12;4.60;;;3.10;;
76795;SDS011;65745;50.278;18.192;2023-07-22T06:18:45;4.90;;;3.40;;
76795;SDS011;65745;50.278;18.192;2023-07-22T06:21:17;4.50;;;3.50;;
76795;SDS011;65745;50.278;18.192;2023-07-22T06:23:49;4.70;;;3.60;;
76795;SDS011;65745;50.278;18.192;2023-07-22T06:26:21;7.00;;;4.00;;
76795;SDS011;65745;50.278;18.192;2023-07-22T06:28:54;5.10;;;4.10;;
76795;SDS011;65745;50.278;18.192;2023-07-22T06:31:26;5.40;;;4.00;;
76795;SDS011;65745;50.278;18.192;2023-07-22T06:34:00;5.10;;;4.00;;
76795;SDS011;65745;50.278;18.192;2023-07-22T06:36:32;5.10;;;3.30;;
76795;SDS011;65745;50.278;18.192;2023-07-22T06:39:04;5.60;;;3.50;;
76795;SDS011;65745;50.278;18.192;2023-07-22T06:41:36;3.80;;;3.30;;
76795;SDS011;65745;50.278;18.192;2023-07-22T06:44:08;4.40;;;3.60;;
76795;SDS011;65745;50.278;18.192;2023-07-22T06:46:40;4.50;;;3.50;;
76795;SDS011;65745;50.278;18.192;2023-07-22T06:49:13;4.30;;;3.30;;
76795;SDS011;65745;50.278;18.192;2023-07-22T06:51:45;4.80;;;3.20;;
76795;SDS011;65745;50.278;18.192;2023-07-22T06:54:17;3.40;;;2.90;;
76795;SDS011;65745;50.278;18.192;2023-07-22T06:56:49;4.40;;;3.60;;
76795;SDS011;65745;50.278;18.192;2023-07-22T06:59:21;3.70;;;2.90;;
76795;SDS011;65745;50.278;18.192;2023-07-22T07:01:55;4.70;;;2.60;;
76795;SDS011;65745;50.278;18.192;2023-07-22T07:04:27;3.30;;;2.80;;
76795;SDS011;65745;50.278;18.192;2023-07-22T07:06:59;3.90;;;2.90;;
76795;SDS011;65745;50.278;18.192;2023-07-22T07:09:31;3.90;;;3.00;;
76795;SDS011;65745;50.278;18.192;2023-07-22T07:12:05;3.60;;;3.10;;
76795;SDS011;65745;50.278;18.192;2023-07-22T07:14:38;3.40;;;3.10;;
76795;SDS011;65745;50.278;18.192;2023-07-22T07:17:11;5.00;;;3.10;;
76795;SDS011;65745;50.278;18.192;2023-07-22T07:19:43;3.90;;;3.20;;
76795;SDS011;65745;50.278;18.192;2023-07-22T07:22:15;3.40;;;2.80;;
76795;SDS011;65745;50.278;18.192;2023-07-22T07:24:47;5.90;;;3.20;;
76795;SDS011;65745;50.278;18.192;2023-07-22T07:27:19;4.60;;;3.40;;
76795;SDS011;65745;50.278;18.192;2023-07-22T07:29:51;4.60;;;2.80;;
76795;SDS011;65745;50.278;18.192;2023-07-22T07:32:23;4.30;;;2.90;;
76795;SDS011;65745;50.278;18.192;2023-07-22T07:34:55;3.50;;;2.90;;
76795;SDS011;65745;50.278;18.192;2023-07-22T07:37:27;3.30;;;2.90;;
76795;SDS011;65745;50.278;18.192;2023-07-22T07:39:59;3.40;;;2.70;;
76795;SDS011;65745;50.278;18.192;2023-07-22T07:42:32;3.70;;;2.70;;
76795;SDS011;65745;50.278;18.192;2023-07-22T07:45:06;6.60;;;2.60;;
76795;SDS011;65745;50.278;18.192;2023-07-22T07:47:39;4.10;;;3.20;;
76795;SDS011;65745;50.278;18.192;2023-07-22T07:50:12;2.90;;;2.60;;
76795;SDS011;65745;50.278;18.192;2023-07-22T07:52:44;3.30;;;2.70;;
76795;SDS011;65745;50.278;18.192;2023-07-22T07:55:16;3.60;;;2.70;;
76795;SDS011;65745;50.278;18.192;2023-07-22T07:57:48;3.90;;;3.00;;
76795;SDS011;65745;50.278;18.192;2023-07-22T08:00:20;3.20;;;2.80;;
76795;SDS011;65745;50.278;18.192;2023-07-22T08:02:52;3.80;;;2.70;;
76795;SDS011;65745;50.278;18.192;2023-07-22T08:05:24;3.00;;;2.70;;
76795;SDS011;65745;50.278;18.192;2023-07-22T08:07:56;3.10;;;2.50;;
76795;SDS011;65745;50.278;18.192;2023-07-22T08:10:28;4.30;;;2.40;;
76795;SDS011;65745;50.278;18.192;2023-07-22T08:13:01;3.40;;;2.40;;
76795;SDS011;65745;50.278;18.192;2023-07-22T08:15:33;3.20;;;2.70;;
76795;SDS011;65745;50.278;18.192;2023-07-22T08:18:06;3.30;;;2.50;;
76795;SDS011;65745;50.278;18.192;2023-07-22T08:20:38;3.60;;;2.40;;
76795;SDS011;65745;50.278;18.192;2023-07-22T08:23:10;2.90;;;2.40;;
76795;SDS011;65745;50.278;18.192;2023-07-22T08:25:43;3.30;;;2.30;;
76795;SDS011;65745;50.278;18.192;2023-07-22T08:28:15;3.30;;;2.60;;
76795;SDS011;65745;50.278;18.192;2023-07-22T08:30:48;3.50;;;2.50;;
76795;SDS011;65745;50.278;18.192;2023-07-22T08:33:24;3.60;;;2.40;;
76795;SDS011;65745;50.278;18.192;2023-07-22T08:36:09;3.60;;;2.20;;
76795;SDS011;65745;50.278;18.192;2023-07-22T08:38:41;3.10;;;2.30;;
76795;SDS011;65745;50.278;18.192;2023-07-22T08:41:15;5.80;;;2.40;;
76795;SDS011;65745;50.278;18.192;2023-07-22T08:43:47;2.30;;;1.80;;
76795;SDS011;65745;50.278;18.192;2023-07-22T08:46:20;3.50;;;2.20;;
76795;SDS011;65745;50.278;18.192;2023-07-22T08:48:59;3.60;;;2.00;;
76795;SDS011;65745;50.278;18.192;2023-07-22T08:51:31;2.20;;;1.90;;
76795;SDS011;65745;50.278;18.192;2023-07-22T08:54:06;3.20;;;2.60;;
76795;SDS011;65745;50.278;18.192;2023-07-22T08:56:40;2.90;;;2.20;;
76795;SDS011;65745;50.278;18.192;2023-07-22T08:59:13;4.30;;;2.40;;
76795;SDS011;65745;50.278;18.192;2023-07-22T09:01:47;3.80;;;2.40;;
76795;SDS011;65745;50.278;18.192;2023-07-22T09:04:21;3.60;;;2.70;;
76795;SDS011;65745;50.278;18.192;2023-07-22T09:06:54;3.30;;;2.30;;
76795;SDS011;65745;50.278;18.192;2023-07-22T09:09:27;2.80;;;2.50;;
76795;SDS011;65745;50.278;18.192;2023-07-22T09:12:00;2.80;;;2.10;;
76795;SDS011;65745;50.278;18.192;2023-07-22T09:14:35;3.30;;;2.30;;
76795;SDS011;65745;50.278;18.192;2023-07-22T09:17:08;2.50;;;2.20;;
76795;SDS011;65745;50.278;18.192;2023-07-22T09:19:41;3.10;;;2.20;;
76795;SDS011;65745;50.278;18.192;2023-07-22T09:22:13;3.10;;;2.20;;
76795;SDS011;65745;50.278;18.192;2023-07-22T09:24:45;3.40;;;2.40;;
76795;SDS011;65745;50.278;18.192;2023-07-22T09:27:18;5.20;;;2.30;;
76795;SDS011;65745;50.278;18.192;2023-07-22T09:30:19;2.50;;;2.10;;
76795;SDS011;65745;50.278;18.192;2023-07-22T09:32:53;3.60;;;2.10;;
76795;SDS011;65745;50.278;18.192;2023-07-22T09:35:26;3.00;;;2.40;;
76795;SDS011;65745;50.278;18.192;2023-07-22T09:38:00;2.50;;;2.30;;
76795;SDS011;65745;50.278;18.192;2023-07-22T09:40:32;2.70;;;2.30;;
76795;SDS011;65745;50.278;18.192;2023-07-22T09:43:04;2.80;;;2.50;;
76795;SDS011;65745;50.278;18.192;2023-07-22T09:45:36;3.10;;;2.40;;
76795;SDS011;65745;50.278;18.192;2023-07-22T09:48:09;4.30;;;2.70;;
76795;SDS011;65745;50.278;18.192;2023-07-22T09:50:42;3.10;;;2.50;;
76795;SDS011;65745;50.278;18.192;2023-07-22T09:53:15;3.30;;;2.40;;
76795;SDS011;65745;50.278;18.192;2023-07-22T09:55:48;2.70;;;2.40;;
76795;SDS011;65745;50.278;18.192;2023-07-22T09:58:22;3.10;;;2.70;;
76795;SDS011;65745;50.278;18.192;2023-07-22T10:00:57;2.70;;;2.40;;
76795;SDS011;65745;50.278;18.192;2023-07-22T10:03:31;2.90;;;2.60;;
76795;SDS011;65745;50.278;18.192;2023-07-22T10:06:07;3.40;;;2.40;;
76795;SDS011;65745;50.278;18.192;2023-07-22T10:08:40;4.40;;;2.90;;
76795;SDS011;65745;50.278;18.192;2023-07-22T10:11:17;3.30;;;3.00;;
76795;SDS011;65745;50.278;18.192;2023-07-22T10:13:49;2.90;;;2.60;;
76795;SDS011;65745;50.278;18.192;2023-07-22T10:16:23;4.40;;;2.50;;
76795;SDS011;65745;50.278;18.192;2023-07-22T10:18:56;4.10;;;2.90;;
76795;SDS011;65745;50.278;18.192;2023-07-22T10:21:29;3.40;;;2.70;;
76795;SDS011;65745;50.278;18.192;2023-07-22T10:24:03;3.20;;;2.60;;
76795;SDS011;65745;50.278;18.192;2023-07-22T10:26:36;3.00;;;2.70;;
76795;SDS011;65745;50.278;18.192;2023-07-22T10:29:15;4.90;;;3.00;;
76795;SDS011;65745;50.278;18.192;2023-07-22T10:31:49;2.80;;;2.50;;
76795;SDS011;65745;50.278;18.192;2023-07-22T10:34:23;3.10;;;2.70;;
76795;SDS011;65745;50.278;18.192;2023-07-22T10:36:56;4.00;;;2.90;;
76795;SDS011;65745;50.278;18.192;2023-07-22T10:39:28;3.90;;;3.30;;
76795;SDS011;65745;50.278;18.192;2023-07-22T10:42:01;5.10;;;3.20;;
76795;SDS011;65745;50.278;18.192;2023-07-22T10:44:34;3.70;;;3.30;;
76795;SDS011;65745;50.278;18.192;2023-07-22T10:47:08;3.20;;;2.80;;
76795;SDS011;65745;50.278;18.192;2023-07-22T10:49:44;3.60;;;2.70;;
76795;SDS011;65745;50.278;18.192;2023-07-22T10:55:15;4.30;;;3.50;;
76795;SDS011;65745;50.278;18.192;2023-07-22T10:57:49;3.30;;;3.00;;
76795;SDS011;65745;50.278;18.192;2023-07-22T11:00:25;4.10;;;3.40;;
76795;SDS011;65745;50.278;18.192;2023-07-22T11:03:10;3.10;;;2.70;;
76795;SDS011;65745;50.278;18.192;2023-07-22T11:05:51;3.60;;;2.90;;
76795;SDS011;65745;50.278;18.192;2023-07-22T11:08:39;6.90;;;2.90;;
76795;SDS011;65745;50.278;18.192;2023-07-22T11:11:12;3.40;;;2.90;;
76795;SDS011;65745;50.278;18.192;2023-07-22T11:13:44;3.10;;;2.60;;
76795;SDS011;65745;50.278;18.192;2023-07-22T11:16:16;3.60;;;2.70;;
76795;SDS011;65745;50.278;18.192;2023-07-22T11:18:48;3.90;;;2.80;;
76795;SDS011;65745;50.278;18.192;2023-07-22T11:21:20;3.20;;;2.90;;
76795;SDS011;65745;50.278;18.192;2023-07-22T11:23:53;3.50;;;2.80;;
76795;SDS011;65745;50.278;18.192;2023-07-22T11:26:25;3.70;;;2.50;;
76795;SDS011;65745;50.278;18.192;2023-07-22T11:28:57;5.50;;;2.80;;
76795;SDS011;65745;50.278;18.192;2023-07-22T11:31:33;3.40;;;2.60;;
76795;SDS011;65745;50.278;18.192;2023-07-22T11:34:06;4.10;;;3.20;;
76795;SDS011;65745;50.278;18.192;2023-07-22T11:36:38;3.40;;;2.50;;
76795;SDS011;65745;50.278;18.192;2023-07-22T11:39:12;4.00;;;3.10;;
76795;SDS011;65745;50.278;18.192;2023-07-22T11:41:45;3.10;;;2.60;;
76795;SDS011;65745;50.278;18.192;2023-07-22T11:44:19;3.50;;;2.90;;
76795;SDS011;65745;50.278;18.192;2023-07-22T11:46:54;4.40;;;3.30;;
76795;SDS011;65745;50.278;18.192;2023-07-22T11:49:28;3.00;;;2.50;;
76795;SDS011;65745;50.278;18.192;2023-07-22T11:52:02;3.10;;;2.80;;
76795;SDS011;65745;50.278;18.192;2023-07-22T11:54:37;3.30;;;2.40;;
76795;SDS011;65745;50.278;18.192;2023-07-22T11:57:11;4.20;;;2.70;;
76795;SDS011;65745;50.278;18.192;2023-07-22T11:59:46;3.30;;;2.60;;
76795;SDS011;65745;50.278;18.192;2023-07-22T12:02:20;2.80;;;2.50;;
76795;SDS011;65745;50.278;18.192;2023-07-22T12:04:53;3.00;;;2.70;;
76795;SDS011;65745;50.278;18.192;2023-07-22T12:07:27;4.60;;;3.30;;
76795;SDS011;65745;50.278;18.192;2023-07-22T12:10:01;3.60;;;2.70;;
76795;SDS011;65745;50.278;18.192;2023-07-22T12:12:35;3.30;;;2.50;;
76795;SDS011;65745;50.278;18.192;2023-07-22T12:15:10;3.60;;;2.90;;
76795;SDS011;65745;50.278;18.192;2023-07-22T12:17:46;3.50;;;2.60;;
76795;SDS011;65745;50.278;18.192;2023-07-22T12:20:19;4.10;;;2.60;;
76795;SDS011;65745;50.278;18.192;2023-07-22T12:22:56;3.50;;;2.60;;
76795;SDS011;65745;50.278;18.192;2023-07-22T12:25:29;3.70;;;2.80;;
76795;SDS011;65745;50.278;18.192;2023-07-22T12:28:02;3.30;;;2.40;;
76795;SDS011;65745;50.278;18.192;2023-07-22T12:30:35;3.30;;;2.60;;
76795;SDS011;65745;50.278;18.192;2023-07-22T12:33:07;3.30;;;2.50;;
76795;SDS011;65745;50.278;18.192;2023-07-22T12:35:39;3.00;;;2.40;;
76795;SDS011;65745;50.278;18.192;2023-07-22T12:38:11;4.10;;;2.80;;
76795;SDS011;65745;50.278;18.192;2023-07-22T12:40:43;5.70;;;2.50;;
76795;SDS011;65745;50.278;18.192;2023-07-22T12:43:15;3.60;;;2.50;;
76795;SDS011;65745;50.278;18.192;2023-07-22T12:45:48;2.70;;;2.00;;
76795;SDS011;65745;50.278;18.192;2023-07-22T12:48:20;3.30;;;2.20;;
76795;SDS011;65745;50.278;18.192;2023-07-22T12:50:53;4.40;;;2.70;;
76795;SDS011;65745;50.278;18.192;2023-07-22T12:53:26;3.00;;;2.20;;
76795;SDS011;65745;50.278;18.192;2023-07-22T12:56:01;5.80;;;2.70;;
76795;SDS011;65745;50.278;18.192;2023-07-22T12:58:35;8.90;;;3.00;;
76795;SDS011;65745;50.278;18.192;2023-07-22T13:01:07;4.00;;;2.60;;
76795;SDS011;65745;50.278;18.192;2023-07-22T13:03:39;7.40;;;3.00;;
76795;SDS011;65745;50.278;18.192;2023-07-22T13:06:11;3.20;;;2.50;;
76795;SDS011;65745;50.278;18.192;2023-07-22T13:08:43;3.30;;;2.60;;
76795;SDS011;65745;50.278;18.192;2023-07-22T13:11:15;3.90;;;2.70;;
76795;SDS011;65745;50.278;18.192;2023-07-22T13:13:47;3.20;;;2.30;;
76795;SDS011;65745;50.278;18.192;2023-07-22T13:16:19;2.80;;;2.40;;
76795;SDS011;65745;50.278;18.192;2023-07-22T13:18:51;3.80;;;2.50;;
76795;SDS011;65745;50.278;18.192;2023-07-22T13:21:23;3.60;;;2.60;;
76795;SDS011;65745;50.278;18.192;2023-07-22T13:23:56;3.70;;;2.50;;
76795;SDS011;65745;50.278;18.192;2023-07-22T13:26:28;3.20;;;2.30;;
76795;SDS011;65745;50.278;18.192;2023-07-22T13:29:01;2.90;;;2.40;;
76795;SDS011;65745;50.278;18.192;2023-07-22T13:31:33;4.50;;;2.60;;
76795;SDS011;65745;50.278;18.192;2023-07-22T13:34:05;3.50;;;2.70;;
76795;SDS011;65745;50.278;18.192;2023-07-22T13:36:37;3.00;;;2.30;;
76795;SDS011;65745;50.278;18.192;2023-07-22T13:39:09;3.20;;;2.50;;
76795;SDS011;65745;50.278;18.192;2023-07-22T13:41:41;3.20;;;2.40;;
76795;SDS011;65745;50.278;18.192;2023-07-22T13:44:14;3.30;;;2.50;;
76795;SDS011;65745;50.278;18.192;2023-07-22T13:46:46;3.10;;;2.60;;
76795;SDS011;65745;50.278;18.192;2023-07-22T13:49:18;3.40;;;2.40;;
76795;SDS011;65745;50.278;18.192;2023-07-22T13:51:51;3.00;;;2.40;;
76795;SDS011;65745;50.278;18.192;2023-07-22T13:54:23;6.90;;;2.50;;
76795;SDS011;65745;50.278;18.192;2023-07-22T13:56:55;3.00;;;2.70;;
76795;SDS011;65745;50.278;18.192;2023-07-22T13:59:27;4.70;;;2.70;;
76795;SDS011;65745;50.278;18.192;2023-07-22T14:01:59;2.90;;;2.50;;
76795;SDS011;65745;50.278;18.192;2023-07-22T14:04:32;5.10;;;2.60;;
76795;SDS011;65745;50.278;18.192;2023-07-22T14:07:04;3.70;;;2.70;;
76795;SDS011;65745;50.278;18.192;2023-07-22T14:09:37;2.80;;;2.20;;
76795;SDS011;65745;50.278;18.192;2023-07-22T14:12:09;3.90;;;2.60;;
76795;SDS011;65745;50.278;18.192;2023-07-22T14:14:41;4.30;;;2.70;;
76795;SDS011;65745;50.278;18.192;2023-07-22T14:17:13;3.80;;;2.70;;
76795;SDS011;65745;50.278;18.192;2023-07-22T14:19:45;3.80;;;2.70;;
76795;SDS011;65745;50.278;18.192;2023-07-22T14:22:17;3.50;;;2.60;;
76795;SDS011;65745;50.278;18.192;2023-07-22T14:24:50;3.20;;;2.40;;
76795;SDS011;65745;50.278;18.192;2023-07-22T14:27:22;3.20;;;2.60;;
76795;SDS011;65745;50.278;18.192;2023-07-22T14:29:54;3.20;;;2.60;;
76795;SDS011;65745;50.278;18.192;2023-07-22T14:32:27;3.00;;;2.40;;
76795;SDS011;65745;50.278;18.192;2023-07-22T14:35:01;2.90;;;2.40;;
76795;SDS011;65745;50.278;18.192;2023-07-22T14:37:35;2.90;;;2.30;;
76795;SDS011;65745;50.278;18.192;2023-07-22T14:40:12;3.10;;;2.50;;
76795;SDS011;65745;50.278;18.192;2023-07-22T14:42:45;4.50;;;2.70;;
76795;SDS011;65745;50.278;18.192;2023-07-22T14:45:18;2.90;;;2.60;;
76795;SDS011;65745;50.278;18.192;2023-07-22T14:47:51;3.40;;;3.00;;
76795;SDS011;65745;50.278;18.192;2023-07-22T14:50:24;2.90;;;2.50;;
76795;SDS011;65745;50.278;18.192;2023-07-22T14:52:58;2.90;;;2.20;;
76795;SDS011;65745;50.278;18.192;2023-07-22T14:55:32;5.40;;;2.80;;
76795;SDS011;65745;50.278;18.192;2023-07-22T14:58:05;4.50;;;2.60;;
76795;SDS011;65745;50.278;18.192;2023-07-22T15:00:37;3.20;;;2.50;;
76795;SDS011;65745;50.278;18.192;2023-07-22T15:03:10;6.00;;;3.00;;
76795;SDS011;65745;50.278;18.192;2023-07-22T15:05:43;3.00;;;2.40;;
76795;SDS011;65745;50.278;18.192;2023-07-22T15:08:16;3.20;;;2.40;;
76795;SDS011;65745;50.278;18.192;2023-07-22T15:10:49;3.70;;;2.40;;